Startpagina
METAR-TAF:

METAR-TAF

Vliegvelden :

Burgos, Spanje

breedte: 42-22N, lengte: 003-38W, hoogte: 894 m

Actueel weer

Dit bericht is 17 minuten geleden gemaakt, om 21:00 UTC
Wind 1 kt uit variabele richting
Temperatuur 6°C
Vochtigheid 70%
Druk 1033 hPa
Zicht 10 km of meer
geen wolken onder 1500 m en geen cumulonimbus

METAR: LEBG 232100Z AUTO VRB01KT CAVOK 06/01 Q1033

Tijdstip: 22:17 (21:17 UTC)

Verwachting

Dit bericht is 4 uur en het 17 minuten geleden gemaakt, om 17:00 UTC
Verwachting geldig van 23 om 18 UTC tot 24 om 03 UTC
Wind 5 kt uit variabele richting
Zicht 10 km of meer
geen wolken onder 1500 m en geen cumulonimbus
Tijdelijke
van 23 om 18 UTC tot 23 om 24 UTC
Wind 10 kt uit het oostnoordoosten

TAF: LEBG 231700Z 2318/2403 VRB05KT CAVOK TEMPO 2318/2324 07010KT

Waarnemingen en weersverwachtingen van meer dan 4000 vliegvelden (METAR en TAF).

De beschikbare stations zijn de gele en rode punten op de kaart.

Ga met uw muis naar het station om de naam te zien.

Klik dan om waarnemingen en weersverwachtingen te zien.

kaart wijzigen: klik op de groene knoppen met een zwart kruis om in te zoomen, op de groene knop met een streepje om uit te zoomen of op de groene pijlen voor aangrenzende kaarten.


METAR-TAF: